Time;durP1;ratioP1;P1;durP2;ratioP2;P2;SDS_P1;SDS_P2;PMS_P1;PMS_P2;Temp;Humidity;BMP_temperature;BMP_pressure;BME280_temperature;BME280_humidity;BME280_pressure;Samples;Min_cycle;Max_cycle;Signal;HPM_P1;HPM_P2
2022/12/13 00:01:32;;;;;;;6.22;3.47;;;14.50;89.70;;;;;;5038307;28;20478;-87
2022/12/13 00:04:01;;;;;;;8.35;3.42;;;14.50;90.10;;;;;;5037886;28;20025;-88
2022/12/13 00:06:27;;;;;;;8.88;3.33;;;14.50;89.70;;;;;;5055925;28;20078;-88
2022/12/13 00:08:53;;;;;;;8.88;3.50;;;14.50;89.80;;;;;;5055696;28;20095;-87
2022/12/13 00:11:19;;;;;;;6.82;3.08;;;14.50;89.90;;;;;;5038017;28;20029;-87
2022/12/13 00:13:48;;;;;;;6.07;3.63;;;14.50;90.00;;;;;;5055921;28;20109;-88
2022/12/13 00:16:18;;;;;;;7.65;3.67;;;14.50;90.00;;;;;;5055741;28;20029;-88
2022/12/13 00:18:47;;;;;;;;;;;14.50;90.10;;;;;;5038093;28;20028;-87
2022/12/13 00:21:17;;;;;;;6.70;3.10;;;14.50;90.10;;;;;;5037689;28;20358;-88
2022/12/13 00:23:43;;;;;;;7.17;3.27;;;14.50;90.10;;;;;;5055849;28;20375;-88
2022/12/13 00:26:35;;;;;;;7.25;3.40;;;14.50;90.10;;;;;;5037626;28;20036;-87
2022/12/13 00:29:05;;;;;;;8.52;3.47;;;14.50;90.50;;;;;;5034524;28;20045;-88
2022/12/13 00:31:31;;;;;;;6.72;3.45;;;14.50;90.10;;;;;;5037402;28;20083;-88
2022/12/13 00:33:58;;;;;;;7.13;3.42;;;14.50;90.20;;;;;;5037607;28;20017;-87
2022/12/13 00:36:23;;;;;;;9.15;3.05;;;14.50;90.20;;;;;;5037915;28;20089;-88
2022/12/13 00:38:59;;;;;;;8.32;2.70;;;14.50;90.20;;;;;;5037130;28;20482;-88
2022/12/13 00:41:26;;;;;;;11.65;3.92;;;14.50;90.20;;;;;;5037938;28;20085;-88
2022/12/13 00:43:52;;;;;;;5.47;3.17;;;14.50;90.20;;;;;;5037354;28;20025;-87
2022/12/13 00:46:19;;;;;;;4.95;2.97;;;14.60;90.20;;;;;;5037224;28;20048;-87
2022/12/13 00:48:49;;;;;;;6.60;2.67;;;14.50;90.20;;;;;;5055242;28;20398;-87
2022/12/13 00:51:15;;;;;;;10.00;2.95;;;14.50;90.20;;;;;;5037104;28;20108;-88
2022/12/13 00:53:41;;;;;;;5.07;3.40;;;14.50;90.20;;;;;;5037011;28;20395;-88
2022/12/13 00:56:11;;;;;;;6.85;2.70;;;14.50;90.10;;;;;;5037201;28;20031;-86
2022/12/13 00:58:37;;;;;;;6.00;3.17;;;14.50;90.10;;;;;;5036729;28;20021;-87
2022/12/13 01:01:05;;;;;;;5.28;3.00;;;14.50;90.10;;;;;;5054842;28;20021;-88
2022/12/13 01:03:30;;;;;;;5.63;3.05;;;14.50;90.10;;;;;;5054272;28;20043;-87
2022/12/13 01:05:56;;;;;;;14.70;3.78;;;14.40;90.20;;;;;;5048256;28;20030;-88
2022/12/13 01:08:22;;;;;;;10.35;3.33;;;14.50;90.30;;;;;;5035839;28;20116;-87
2022/12/13 01:10:48;;;;;;;4.95;3.25;;;14.40;90.30;;;;;;5054575;28;20593;-86
2022/12/13 01:13:14;;;;;;;14.70;3.22;;;14.40;90.40;;;;;;5052337;28;20021;-87
2022/12/13 01:15:43;;;;;;;10.80;3.78;;;14.40;90.30;;;;;;5054346;28;20140;-87
2022/12/13 01:18:09;;;;;;;9.95;3.45;;;14.40;90.40;;;;;;5036441;28;20117;-88
2022/12/13 01:20:36;;;;;;;9.88;3.55;;;14.40;90.40;;;;;;5054680;28;20021;-88
2022/12/13 01:23:02;;;;;;;12.05;4.03;;;14.40;90.40;;;;;;5036636;28;20079;-88
2022/12/13 01:25:27;;;;;;;9.25;3.13;;;14.40;90.40;;;;;;5036620;28;20025;-88
2022/12/13 01:27:53;;;;;;;8.20;3.47;;;14.40;90.50;;;;;;5036660;28;20120;-88
2022/12/13 01:30:18;;;;;;;10.13;3.67;;;14.40;90.50;;;;;;5036397;28;20094;-88
2022/12/13 01:32:44;;;;;;;10.00;2.92;;;14.40;90.60;;;;;;5036534;28;20056;-88
2022/12/13 01:35:10;;;;;;;14.98;3.58;;;14.50;90.50;;;;;;5036622;28;20033;-87
2022/12/13 01:37:35;;;;;;;17.70;3.58;;;14.40;90.50;;;;;;5036546;28;20044;-87
2022/12/13 01:40:03;;;;;;;8.73;2.90;;;14.50;90.60;;;;;;5036384;28;20052;-88
2022/12/13 01:42:29;;;;;;;5.75;3.08;;;14.50;90.50;;;;;;5036269;28;20025;-87
2022/12/13 01:44:54;;;;;;;18.58;3.75;;;14.50;90.50;;;;;;5036348;28;20040;-87
2022/12/13 01:47:42;;;;;;;21.77;3.70;;;14.50;90.40;;;;;;5036271;28;20393;-87
2022/12/13 01:50:17;;;;;;;15.95;3.50;;;14.50;90.40;;;;;;5035925;28;20115;-88
2022/12/13 01:52:43;;;;;;;9.32;3.03;;;14.40;90.40;;;;;;5046939;28;20389;-88
2022/12/13 01:55:12;;;;;;;9.82;3.40;;;14.40;90.30;;;;;;5036002;28;20155;-87
2022/12/13 01:57:41;;;;;;;6.40;3.63;;;14.40;90.30;;;;;;5053831;28;20021;-87
2022/12/13 02:00:08;;;;;;;9.82;3.20;;;14.40;90.30;;;;;;5035830;28;20025;-87
2022/12/13 02:02:34;;;;;;;4.43;2.97;;;14.40;90.30;;;;;;5053627;28;20027;-88
2022/12/13 02:05:26;;;;;;;5.05;3.13;;;14.40;90.30;;;;;;5040521;28;20029;-88
2022/12/13 02:07:52;;;;;;;10.13;2.92;;;14.30;90.30;;;;;;5035673;28;20021;-88
2022/12/13 02:10:18;;;;;;;7.63;3.05;;;14.40;90.40;;;;;;5035195;28;20036;-87
2022/12/13 02:12:44;;;;;;;7.65;3.35;;;14.40;90.40;;;;;;5053403;28;20024;-87
2022/12/13 02:15:13;;;;;;;9.30;3.22;;;14.40;90.40;;;;;;5034438;28;20482;-88
2022/12/13 02:18:02;;;;;;;5.03;3.00;;;14.40;90.30;;;;;;5045308;28;20021;-87
2022/12/13 02:20:54;;;;;;;5.70;2.90;;;14.40;90.30;;;;;;5035393;28;20104;-87
2022/12/13 02:23:37;;;;;;;5.15;2.85;;;14.40;90.30;;;;;;5035626;28;20036;-88
2022/12/13 02:26:09;;;;;;;8.98;2.70;;;14.40;90.30;;;;;;5035417;28;20025;-88
2022/12/13 02:29:17;;;;;;;5.20;2.80;;;14.40;90.20;;;;;;5035342;28;20028;-88
2022/12/13 02:31:54;;;;;;;8.13;3.03;;;14.40;90.30;;;;;;5024210;28;20033;-88
2022/12/13 02:34:27;;;;;;;5.65;3.30;;;14.40;90.30;;;;;;5035380;28;20449;-87
2022/12/13 02:37:07;;;;;;;13.30;2.75;;;14.40;90.30;;;;;;5035392;28;20025;-87
2022/12/13 02:39:43;;;;;;;8.67;3.03;;;14.40;90.30;;;;;;5034983;28;20044;-88
2022/12/13 02:42:20;;;;;;;3.50;2.60;;;14.40;90.30;;;;;;5035190;28;20032;-87
2022/12/13 02:44:56;;;;;;;8.32;3.30;;;14.40;90.30;;;;;;5015408;28;20060;-87
2022/12/13 02:47:24;;;;;;;7.38;3.33;;;14.40;90.40;;;;;;5016505;28;20482;-87
2022/12/13 02:49:54;;;;;;;5.95;2.50;;;14.40;90.50;;;;;;5034766;28;20394;-87
2022/12/13 02:52:24;;;;;;;6.15;3.05;;;14.40;90.50;;;;;;5035338;28;20025;-87
2022/12/13 02:54:50;;;;;;;14.57;3.33;;;14.40;90.50;;;;;;5034956;28;20021;-88
2022/12/13 02:57:34;;;;;;;9.77;3.08;;;14.30;90.50;;;;;;5034856;28;20055;-88
2022/12/13 03:00:04;;;;;;;10.90;2.90;;;14.30;90.50;;;;;;5052431;28;20024;-86
2022/12/13 03:02:37;;;;;;;;;;;14.30;90.50;;;;;;5035252;28;20024;-88
2022/12/13 03:08:17;;;;;;;12.25;2.70;;;14.30;90.60;;;;;;5047764;28;20047;-86
2022/12/13 03:10:48;;;;;;;5.03;2.80;;;14.30;90.60;;;;;;5052401;28;20478;-87
2022/12/13 03:13:36;;;;;;;7.00;2.58;;;14.30;90.60;;;;;;5034670;28;20067;-87
2022/12/13 03:16:16;;;;;;;7.35;2.40;;;14.30;90.50;;;;;;5034677;28;20116;-87
2022/12/13 03:18:44;;;;;;;4.68;2.67;;;14.30;90.60;;;;;;5028021;28;20483;-88
2022/12/13 03:21:11;;;;;;;9.13;2.80;;;14.30;90.60;;;;;;5030977;28;20397;-87
2022/12/13 03:23:37;;;;;;;6.78;3.00;;;14.30;90.60;;;;;;5034403;28;20090;-87
2022/12/13 03:26:12;;;;;;;9.00;3.35;;;14.30;90.60;;;;;;5052189;28;20025;-88
2022/12/13 03:28:38;;;;;;;9.65;2.63;;;14.40;90.70;;;;;;5034089;28;20482;-87
2022/12/13 03:31:04;;;;;;;8.65;3.05;;;14.40;90.70;;;;;;5034301;28;20029;-88
2022/12/13 03:33:30;;;;;;;5.93;2.90;;;14.40;90.70;;;;;;5034603;28;20028;-87
2022/12/13 03:35:55;;;;;;;6.25;2.58;;;14.40;90.60;;;;;;5034376;28;20072;-88
2022/12/13 03:38:21;;;;;;;9.07;3.10;;;14.40;90.60;;;;;;5034231;28;20067;-87
2022/12/13 03:40:47;;;;;;;7.13;2.65;;;14.40;90.60;;;;;;5034724;28;20029;-87
2022/12/13 03:43:13;;;;;;;6.10;2.60;;;14.40;90.70;;;;;;5034389;28;20517;-87
2022/12/13 03:45:38;;;;;;;5.72;2.75;;;14.40;90.70;;;;;;5034259;28;20505;-88
2022/12/13 03:48:04;;;;;;;5.18;2.70;;;14.40;90.70;;;;;;5034340;28;20029;-88
2022/12/13 03:50:30;;;;;;;9.82;3.25;;;14.30;90.60;;;;;;5034402;28;20029;-87
2022/12/13 03:52:59;;;;;;;11.13;2.60;;;14.30;90.60;;;;;;5034563;28;20054;-87
2022/12/13 03:55:25;;;;;;;8.50;2.53;;;14.30;90.60;;;;;;5034175;28;20021;-87
2022/12/13 03:57:51;;;;;;;11.40;2.85;;;14.30;90.60;;;;;;5051996;28;20255;-88
2022/12/13 04:00:16;;;;;;;8.25;2.58;;;14.30;90.70;;;;;;5034027;28;20498;-87
2022/12/13 04:02:42;;;;;;;8.65;2.38;;;14.30;90.70;;;;;;5028833;28;20030;-88
2022/12/13 04:05:08;;;;;;;5.43;2.72;;;14.20;90.70;;;;;;5030177;28;20116;-88
2022/12/13 04:07:33;;;;;;;4.03;2.42;;;14.20;90.70;;;;;;5051954;28;20025;-86
2022/12/13 04:09:59;;;;;;;11.90;2.72;;;14.20;90.70;;;;;;5051876;28;20025;-88
2022/12/13 04:15:09;;;;;;;6.95;2.40;;;14.30;90.70;;;;;;5037759;28;20047;-88
2022/12/13 04:17:34;;;;;;;12.13;2.85;;;14.30;90.70;;;;;;5033916;28;20025;-86
2022/12/13 04:20:00;;;;;;;5.55;2.53;;;14.30;90.70;;;;;;5031159;28;20021;-87
2022/12/13 04:22:25;;;;;;;5.40;3.08;;;14.30;90.70;;;;;;5051789;28;20478;-87
2022/12/13 04:24:51;;;;;;;5.97;2.75;;;14.20;90.60;;;;;;5034003;28;20031;-87
2022/12/13 04:27:17;;;;;;;9.50;2.97;;;14.20;90.70;;;;;;5033890;28;20462;-87
2022/12/13 04:29:42;;;;;;;5.32;2.65;;;14.20;90.60;;;;;;5033829;28;20021;-88
2022/12/13 04:32:08;;;;;;;6.75;2.80;;;14.30;90.70;;;;;;5033764;28;20029;-88
2022/12/13 04:34:33;;;;;;;5.90;2.58;;;14.30;90.70;;;;;;5033915;28;20025;-87
2022/12/13 04:36:59;;;;;;;8.05;2.75;;;14.30;90.70;;;;;;5034120;28;20474;-88
2022/12/13 04:39:24;;;;;;;10.90;2.38;;;14.30;90.70;;;;;;5033094;28;20033;-88
2022/12/13 04:41:53;;;;;;;7.90;3.03;;;14.30;90.70;;;;;;5034221;28;20028;-86
2022/12/13 04:44:19;;;;;;;5.95;3.03;;;14.30;90.70;;;;;;5040233;28;20054;-88
2022/12/13 04:46:44;;;;;;;12.25;2.97;;;14.30;90.60;;;;;;5037494;28;20029;-89
2022/12/13 04:49:10;;;;;;;7.15;2.70;;;14.30;90.60;;;;;;5054994;28;20630;-88
2022/12/13 04:51:35;;;;;;;5.30;2.85;;;14.30;90.60;;;;;;5037358;28;20036;-88
2022/12/13 04:54:01;;;;;;;11.80;2.75;;;14.30;90.60;;;;;;5037135;28;20025;-87
2022/12/13 04:56:26;;;;;;;4.43;2.38;;;14.30;90.60;;;;;;5037198;28;20045;-88
2022/12/13 04:58:52;;;;;;;5.22;2.80;;;14.30;90.60;;;;;;5031245;28;20051;-88
2022/12/13 05:01:18;;;;;;;5.82;2.13;;;14.30;90.50;;;;;;5034764;28;20486;-88
2022/12/13 05:03:43;;;;;;;5.88;2.60;;;14.20;90.50;;;;;;5046789;28;20029;-88
2022/12/13 05:06:12;;;;;;;4.90;2.35;;;14.20;90.60;;;;;;5053742;28;20037;-87
2022/12/13 05:08:37;;;;;;;8.40;2.75;;;14.20;90.60;;;;;;5047878;28;20029;-87
2022/12/13 05:11:04;;;;;;;11.77;3.03;;;14.30;90.40;;;;;;5036842;28;20025;-88
2022/12/13 05:13:30;;;;;;;10.15;2.95;;;14.30;90.30;;;;;;5036877;28;20062;-90
2022/12/13 05:15:56;;;;;;;13.65;3.25;;;14.40;90.40;;;;;;5036798;28;20541;-89
2022/12/13 05:18:22;;;;;;;16.35;2.70;;;14.40;90.30;;;;;;5054214;28;20064;-88
2022/12/13 05:20:49;;;;;;;11.60;3.20;;;14.50;90.30;;;;;;5054615;28;20398;-87
2022/12/13 05:23:15;;;;;;;8.70;2.83;;;14.50;90.20;;;;;;5036658;28;20126;-88
2022/12/13 05:25:41;;;;;;;11.63;2.90;;;14.60;90.10;;;;;;5036531;28;20028;-88
2022/12/13 05:28:07;;;;;;;18.63;4.15;;;14.60;90.10;;;;;;5036118;28;20393;-85
2022/12/13 05:30:32;;;;;;;7.95;3.20;;;14.60;90.00;;;;;;5036349;28;20029;-88
2022/12/13 05:32:58;;;;;;;6.07;2.63;;;14.70;89.90;;;;;;5054255;28;20021;-88
2022/12/13 05:35:24;;;;;;;5.47;2.42;;;14.70;89.90;;;;;;5036439;28;20032;-88
2022/12/13 05:37:52;;;;;;;7.45;2.53;;;14.80;89.90;;;;;;5037078;28;20508;-87
2022/12/13 05:40:18;;;;;;;9.82;3.20;;;14.80;89.80;;;;;;5036813;28;20045;-87
2022/12/13 05:42:43;;;;;;;16.27;3.28;;;14.80;89.70;;;;;;5036642;28;20435;-88
2022/12/13 05:45:09;;;;;;;11.98;2.80;;;14.90;89.90;;;;;;5036309;28;20489;-87
2022/12/13 05:47:35;;;;;;;10.48;3.30;;;14.90;89.60;;;;;;5036183;28;20025;-87
2022/12/13 05:50:01;;;;;;;10.30;3.70;;;14.90;90.10;;;;;;5035869;28;20045;-88
2022/12/13 05:52:26;;;;;;;10.05;3.08;;;15.00;89.60;;;;;;5053823;28;20033;-91
2022/12/13 05:54:55;;;;;;;5.03;2.75;;;14.90;89.50;;;;;;5035974;28;20078;-92
2022/12/13 05:57:21;;;;;;;26.45;11.65;;;15.00;90.20;;;;;;5030707;28;20024;-91
2022/12/13 05:59:47;;;;;;;27.42;12.27;;;11.80;61.40;;;;;;5016106;28;20026;-90
2022/12/13 06:02:13;;;;;;;23.65;11.43;;;8.90;65.80;;;;;;5016241;28;20025;-87
2022/12/13 06:04:38;;;;;;;22.80;9.75;;;10.30;76.50;;;;;;5016006;28;20025;-90
2022/12/13 06:07:04;;;;;;;17.95;8.07;;;11.70;76.20;;;;;;5016199;28;20029;-88
2022/12/13 06:09:29;;;;;;;17.40;8.10;;;12.60;75.40;;;;;;5033897;28;20072;-86
2022/12/13 06:11:55;;;;;;;16.13;7.82;;;13.10;75.20;;;;;;5033765;28;20029;-89
2022/12/13 06:14:21;;;;;;;17.10;7.70;;;13.40;75.50;;;;;;5016020;28;20021;-87
2022/12/13 06:16:46;;;;;;;18.40;8.90;;;13.50;74.80;;;;;;5016829;28;20514;-87
2022/12/13 06:19:12;;;;;;;19.58;8.63;;;13.60;72.40;;;;;;5033990;28;20025;-87
2022/12/13 06:21:37;;;;;;;14.48;8.35;;;13.70;71.90;;;;;;5033644;28;20068;-90
2022/12/13 06:24:04;;;;;;;18.80;7.28;;;13.90;72.10;;;;;;5015724;28;20021;-90
2022/12/13 06:26:30;;;;;;;16.65;7.72;;;14.00;72.30;;;;;;5021389;28;20032;-93
2022/12/13 06:28:55;;;;;;;13.27;6.32;;;14.00;72.80;;;;;;5033925;28;20017;-94
2022/12/13 06:31:21;;;;;;;17.25;7.50;;;14.00;73.40;;;;;;5026099;28;20045;-88
2022/12/13 06:33:46;;;;;;;15.35;6.13;;;14.10;74.00;;;;;;5036802;28;20493;-89
2022/12/13 06:36:12;;;;;;;12.35;5.80;;;14.10;74.60;;;;;;5035136;28;20021;-90
2022/12/13 06:38:38;;;;;;;18.25;6.38;;;14.10;74.90;;;;;;5023309;28;20032;-88
2022/12/13 06:41:12;;;;;;;12.73;5.65;;;14.20;75.30;;;;;;5035408;28;20116;-90
2022/12/13 06:43:42;;;;;;;9.70;4.95;;;14.20;75.70;;;;;;5034954;28;20021;-90
2022/12/13 06:46:08;;;;;;;10.25;5.50;;;14.20;76.10;;;;;;5035482;28;20441;-89
2022/12/13 06:48:33;;;;;;;9.60;4.78;;;14.20;76.50;;;;;;5035057;28;20037;-89
2022/12/13 06:51:01;;;;;;;11.80;5.20;;;14.30;76.80;;;;;;5052924;28;20021;-90
2022/12/13 06:53:26;;;;;;;9.75;4.63;;;14.30;76.90;;;;;;5053306;28;20037;-90
2022/12/13 06:55:52;;;;;;;7.15;4.05;;;14.30;77.10;;;;;;5035059;28;20060;-90
2022/12/13 06:58:17;;;;;;;13.20;4.20;;;14.30;77.40;;;;;;5034936;28;20075;-90
2022/12/13 07:00:43;;;;;;;8.32;3.88;;;14.30;77.60;;;;;;5051161;28;20048;-90
2022/12/13 07:03:10;;;;;;;6.55;3.45;;;14.30;77.90;;;;;;5052898;28;20167;-90
2022/12/13 07:05:37;;;;;;;7.72;4.03;;;14.30;78.10;;;;;;5052583;28;20033;-90
2022/12/13 07:08:03;;;;;;;6.82;3.42;;;14.30;78.30;;;;;;5035036;28;20029;-91
2022/12/13 07:10:29;;;;;;;8.98;4.30;;;14.40;78.50;;;;;;5034530;28;20028;-90
2022/12/13 07:12:54;;;;;;;5.75;3.22;;;14.40;78.80;;;;;;5052968;28;20397;-88
2022/12/13 07:15:20;;;;;;;9.52;3.92;;;14.40;78.90;;;;;;5038167;28;20021;-90
2022/12/13 07:17:50;;;;;;;14.55;7.47;;;14.40;79.00;;;;;;5014800;28;20116;-89
2022/12/13 07:20:17;;;;;;;27.13;10.98;;;13.40;64.80;;;;;;5014697;28;20128;-92
2022/12/13 07:22:43;;;;;;;25.83;10.85;;;7.80;64.10;;;;;;5017097;28;20076;-86
2022/12/13 07:25:09;;;;;;;24.13;9.88;;;6.30;62.50;;;;;;5014780;28;20025;-88
2022/12/13 07:27:34;;;;;;;18.83;8.18;;;7.50;81.60;;;;;;5014769;28;20021;-87
2022/12/13 07:30:00;;;;;;;18.70;6.45;;;10.20;81.10;;;;;;5015326;28;20113;-89
2022/12/13 07:32:26;;;;;;;14.27;6.82;;;11.60;78.30;;;;;;5034270;28;20390;-89
2022/12/13 07:34:52;;;;;;;11.80;5.00;;;12.40;78.10;;;;;;5034360;28;20025;-89
2022/12/13 07:37:18;;;;;;;10.48;4.60;;;12.80;76.90;;;;;;5034439;28;20025;-90
2022/12/13 07:39:43;;;;;;;12.20;5.35;;;13.10;76.90;;;;;;5030704;28;20063;-89
2022/12/13 07:42:09;;;;;;;9.00;4.05;;;13.30;77.80;;;;;;5014851;28;20108;-89
2022/12/13 07:44:34;;;;;;;12.48;4.00;;;13.50;77.40;;;;;;5032170;28;20026;-90
2022/12/13 07:47:00;;;;;;;8.73;3.88;;;13.70;77.70;;;;;;5020497;28;20393;-89
2022/12/13 07:49:25;;;;;;;8.05;3.63;;;13.80;77.70;;;;;;5051816;28;20033;-89
2022/12/13 07:51:51;;;;;;;8.93;3.85;;;14.00;78.10;;;;;;5034420;28;20052;-89
2022/12/13 07:54:16;;;;;;;4.82;2.95;;;14.10;78.30;;;;;;5034203;28;20076;-90
2022/12/13 07:56:42;;;;;;;8.32;3.13;;;14.20;78.30;;;;;;5034400;28;20025;-89
2022/12/13 07:59:09;;;;;;;6.65;3.40;;;14.30;78.50;;;;;;5051695;28;20100;-90
2022/12/13 08:01:35;;;;;;;8.13;3.70;;;14.30;78.60;;;;;;5034395;28;20025;-89
2022/12/13 08:04:02;;;;;;;6.95;3.13;;;14.40;79.50;;;;;;5034309;28;20504;-88
2022/12/13 08:06:27;;;;;;;8.00;3.25;;;14.50;78.90;;;;;;5052194;28;20052;-89
2022/12/13 08:08:56;;;;;;;4.80;2.80;;;14.50;79.10;;;;;;5033887;28;20382;-89
2022/12/13 08:11:22;;;;;;;4.68;3.00;;;14.50;79.20;;;;;;5034177;28;20021;-89
2022/12/13 08:13:48;;;;;;;4.32;2.88;;;14.50;79.20;;;;;;5036276;28;20021;-89
2022/12/13 08:16:16;;;;;;;8.52;2.80;;;14.60;79.50;;;;;;5037917;28;20025;-90
2022/12/13 08:18:43;;;;;;;7.15;2.70;;;14.60;79.50;;;;;;5037531;28;20028;-89
2022/12/13 08:21:09;;;;;;;6.10;3.08;;;14.70;79.70;;;;;;5055729;28;20021;-90
2022/12/13 08:23:36;;;;;;;8.10;3.05;;;14.70;79.80;;;;;;5037964;28;20032;-89
2022/12/13 08:26:03;;;;;;;6.57;3.33;;;14.70;79.90;;;;;;5055672;28;20025;-89
2022/12/13 08:28:30;;;;;;;5.70;2.67;;;14.80;80.70;;;;;;5037609;28;20028;-89
2022/12/13 08:31:02;;;;;;;5.65;3.15;;;14.80;79.90;;;;;;5037308;28;20115;-89
2022/12/13 08:33:28;;;;;;;8.23;3.22;;;14.80;79.90;;;;;;5055636;28;20032;-90
2022/12/13 08:35:54;;;;;;;4.53;2.83;;;14.90;80.00;;;;;;5037559;28;20027;-89
2022/12/13 08:38:19;;;;;;;4.35;2.83;;;14.90;79.90;;;;;;5055010;28;20021;-89
2022/12/13 08:40:45;;;;;;;6.60;3.00;;;15.00;79.80;;;;;;5037631;28;20418;-89
2022/12/13 08:43:11;;;;;;;5.45;2.83;;;15.20;79.60;;;;;;5037484;28;20056;-89
2022/12/13 08:45:36;;;;;;;5.43;2.60;;;15.30;79.40;;;;;;5037498;28;20490;-90
2022/12/13 08:48:02;;;;;;;4.68;2.55;;;15.40;79.10;;;;;;5037357;28;20083;-88
2022/12/13 08:50:29;;;;;;;3.80;2.30;;;15.40;78.90;;;;;;5055146;28;20025;-89
2022/12/13 08:52:55;;;;;;;9.65;3.20;;;15.40;79.20;;;;;;5037208;28;20017;-89
2022/12/13 08:55:20;;;;;;;7.72;2.80;;;15.30;79.40;;;;;;5038944;28;20028;-89
2022/12/13 08:57:46;;;;;;;5.22;2.55;;;15.20;79.60;;;;;;5037220;28;20025;-90
2022/12/13 09:00:15;;;;;;;3.78;2.70;;;15.20;80.00;;;;;;5037035;28;20102;-89
2022/12/13 09:02:41;;;;;;;6.05;2.75;;;15.20;80.20;;;;;;5055079;28;20111;-89
2022/12/13 09:05:08;;;;;;;7.57;2.75;;;15.20;80.50;;;;;;5037152;28;20111;-89
2022/12/13 09:07:34;;;;;;;4.97;2.70;;;15.20;80.60;;;;;;5036993;28;20047;-86
2022/12/13 09:10:00;;;;;;;7.07;2.88;;;15.10;80.70;;;;;;5036806;28;20048;-89
2022/12/13 09:12:26;;;;;;;3.75;2.20;;;15.20;80.90;;;;;;5037025;28;20056;-89
2022/12/13 09:14:52;;;;;;;4.45;2.67;;;15.20;81.00;;;;;;5036854;28;20025;-89
2022/12/13 09:17:18;;;;;;;4.25;2.55;;;15.20;81.00;;;;;;5036832;28;20017;-89
2022/12/13 09:19:43;;;;;;;3.92;2.08;;;15.20;81.40;;;;;;5036629;28;20029;-90
2022/12/13 09:22:09;;;;;;;5.93;3.25;;;15.20;81.20;;;;;;5036676;28;20048;-89
2022/12/13 09:24:34;;;;;;;4.75;2.78;;;15.20;81.30;;;;;;5036346;28;20025;-89
2022/12/13 09:27:00;;;;;;;3.80;2.22;;;15.20;81.40;;;;;;5036454;28;20021;-90
2022/12/13 09:29:25;;;;;;;3.55;2.67;;;15.20;81.40;;;;;;5036597;28;20025;-89
2022/12/13 09:31:51;;;;;;;5.38;2.67;;;15.20;81.40;;;;;;5036521;28;20094;-89
2022/12/13 09:34:16;;;;;;;3.78;2.35;;;15.20;81.50;;;;;;5036455;28;20457;-89
2022/12/13 09:36:42;;;;;;;4.63;2.42;;;15.30;81.60;;;;;;5036650;28;20668;-90
2022/12/13 09:39:08;;;;;;;4.78;2.70;;;15.30;81.60;;;;;;5036779;28;20498;-89
2022/12/13 09:41:39;;;;;;;5.50;2.85;;;15.30;81.70;;;;;;5036029;28;20021;-89
2022/12/13 09:44:19;;;;;;;5.20;2.78;;;15.30;81.70;;;;;;5036257;28;20025;-89
2022/12/13 09:46:47;;;;;;;10.27;3.60;;;15.30;81.90;;;;;;5036471;28;20025;-89
2022/12/13 09:49:27;;;;;;;4.53;2.50;;;15.30;81.90;;;;;;5035991;28;20029;-89
2022/12/13 09:51:56;;;;;;;7.00;2.50;;;15.40;81.90;;;;;;5048772;28;20072;-89
2022/12/13 09:54:23;;;;;;;6.53;2.30;;;15.40;81.80;;;;;;5028020;28;20064;-86
2022/12/13 09:56:51;;;;;;;5.43;3.08;;;15.50;82.00;;;;;;5036223;28;20021;-89
2022/12/13 09:59:27;;;;;;;6.82;2.45;;;15.50;82.00;;;;;;5034323;28;20473;-89
2022/12/13 10:01:54;;;;;;;6.47;2.55;;;15.50;82.00;;;;;;5036382;28;20024;-89
2022/12/13 10:04:20;;;;;;;5.95;2.60;;;15.60;82.00;;;;;;5044237;28;20406;-89
2022/12/13 10:06:46;;;;;;;4.63;2.45;;;15.60;81.90;;;;;;5054354;28;20021;-88
2022/12/13 10:09:13;;;;;;;4.00;2.28;;;15.60;82.00;;;;;;5036316;28;20036;-88
2022/12/13 10:11:52;;;;;;;4.18;2.67;;;15.60;82.00;;;;;;5035919;28;20032;-88
2022/12/13 10:14:30;;;;;;;3.87;2.23;;;15.60;82.00;;;;;;5022702;28;20478;-87
2022/12/13 10:17:03;;;;;;;5.28;2.35;;;15.70;82.20;;;;;;5035938;28;20060;-86
2022/12/13 10:19:39;;;;;;;6.47;2.60;;;15.70;82.20;;;;;;5032065;28;20017;-88
2022/12/13 10:22:10;;;;;;;5.82;2.30;;;15.70;82.10;;;;;;5045786;28;20022;-88
2022/12/13 10:24:53;;;;;;;3.67;2.60;;;15.70;82.90;;;;;;5029361;28;20028;-88
2022/12/13 10:27:34;;;;;;;5.32;2.05;;;15.70;82.30;;;;;;5033330;28;20383;-88
2022/12/13 10:30:24;;;;;;;5.88;2.50;;;15.80;82.30;;;;;;5054252;28;20029;-89
2022/12/13 10:32:52;;;;;;;11.23;2.15;;;15.80;82.30;;;;;;5051705;28;20025;-90
2022/12/13 10:35:33;;;;;;;5.22;2.40;;;15.80;82.30;;;;;;5050067;28;20021;-89
2022/12/13 10:38:29;;;;;;;6.95;2.50;;;15.80;82.50;;;;;;5025496;28;20046;-88
2022/12/13 10:40:54;;;;;;;7.72;2.70;;;15.80;82.50;;;;;;5032908;28;20029;-88
2022/12/13 10:43:22;;;;;;;5.20;2.88;;;15.80;82.40;;;;;;5035012;28;20461;-87
2022/12/13 10:46:14;;;;;;;4.28;2.00;;;15.90;82.40;;;;;;5052879;28;20098;-88
2022/12/13 10:48:48;;;;;;;8.07;2.78;;;15.80;82.40;;;;;;5052489;28;20029;-89
2022/12/13 10:51:17;;;;;;;4.03;2.38;;;15.90;82.40;;;;;;5034996;28;20151;-88
2022/12/13 10:53:50;;;;;;;3.65;2.40;;;15.90;82.40;;;;;;5048510;28;20403;-89
2022/12/13 10:56:17;;;;;;;5.35;2.42;;;15.90;82.40;;;;;;5034860;28;20020;-88
2022/12/13 10:58:47;;;;;;;3.53;1.95;;;15.90;82.40;;;;;;5034697;28;20072;-87
2022/12/13 11:01:27;;;;;;;3.50;2.05;;;16.00;82.40;;;;;;5018789;28;20028;-89
2022/12/13 11:04:04;;;;;;;7.78;2.33;;;16.00;82.30;;;;;;5035365;28;20021;-89
2022/12/13 11:06:41;;;;;;;7.78;2.70;;;16.00;82.30;;;;;;5034090;28;20040;-89
2022/12/13 11:09:33;;;;;;;3.05;2.35;;;16.10;82.30;;;;;;5025916;28;20032;-89
2022/12/13 11:12:10;;;;;;;6.13;2.08;;;16.10;82.00;;;;;;5035030;28;20055;-88
2022/12/13 11:14:47;;;;;;;4.15;1.95;;;16.10;82.00;;;;;;5034714;28;20043;-89
2022/12/13 11:17:19;;;;;;;4.53;2.35;;;16.10;82.00;;;;;;5035122;28;20044;-89
2022/12/13 11:19:47;;;;;;;3.83;2.42;;;16.20;82.00;;;;;;5034620;28;20021;-89
2022/12/13 11:22:40;;;;;;;5.43;2.40;;;16.10;81.90;;;;;;5035158;28;20037;-89
2022/12/13 11:25:21;;;;;;;5.88;2.40;;;16.20;81.90;;;;;;5031238;28;20413;-90
2022/12/13 11:28:13;;;;;;;3.28;1.98;;;16.10;81.80;;;;;;5033579;28;20064;-89
2022/12/13 11:30:46;;;;;;;3.00;2.33;;;16.20;81.80;;;;;;4952087;28;20047;-89
2022/12/13 11:33:43;;;;;;;7.03;2.45;;;16.20;81.70;;;;;;4952235;28;20030;-90
2022/12/13 11:36:20;;;;;;;4.28;2.30;;;16.20;81.80;;;;;;4968829;28;20568;-88
2022/12/13 11:39:05;;;;;;;6.05;2.25;;;16.20;81.80;;;;;;4964848;28;20453;-89
2022/12/13 11:42:00;;;;;;;2.55;1.83;;;16.20;81.80;;;;;;4955462;28;20039;-89
2022/12/13 11:44:49;;;;;;;6.53;2.65;;;16.20;81.80;;;;;;4946364;28;20492;-88
2022/12/13 11:47:26;;;;;;;4.35;2.10;;;16.20;81.70;;;;;;4953576;28;20083;-88
2022/12/13 11:49:53;;;;;;;4.38;2.40;;;16.30;81.80;;;;;;4956258;29;20058;-89
2022/12/13 11:52:29;;;;;;;3.00;2.30;;;16.30;81.60;;;;;;4952508;28;20031;-88
2022/12/13 11:54:59;;;;;;;3.25;2.10;;;16.40;81.60;;;;;;4975144;28;20523;-89
2022/12/13 11:57:45;;;;;;;4.50;2.05;;;16.30;81.50;;;;;;4955800;28;20611;-89
2022/12/13 12:00:30;;;;;;;3.88;2.05;;;16.30;81.40;;;;;;4974789;28;20593;-89
2022/12/13 12:03:02;;;;;;;3.08;2.17;;;16.30;81.50;;;;;;4959037;28;20078;-88
2022/12/13 12:05:44;;;;;;;4.50;2.15;;;16.30;82.00;;;;;;4958706;28;20516;-89
2022/12/13 12:08:17;;;;;;;3.95;2.15;;;16.30;81.60;;;;;;5037876;28;20064;-87
2022/12/13 12:10:45;;;;;;;18.23;9.45;;;16.30;81.50;;;;;;5038857;28;20549;-88
2022/12/13 12:13:47;;;;;;;16.90;10.18;;;12.60;56.60;;;;;;5038559;28;20021;-91
2022/12/13 12:16:37;;;;;;;25.75;9.88;;;10.00;65.40;;;;;;5037400;28;20025;-86
2022/12/13 12:19:08;;;;;;;;;;;9.80;65.20;;;;;;5022558;28;20032;-86
2022/12/13 12:21:59;;;;;;;15.27;7.45;;;11.80;69.50;;;;;;5037422;28;20398;-85
2022/12/13 12:24:46;;;;;;;11.50;6.53;;;13.30;66.10;;;;;;5037935;28;20494;-86
2022/12/13 12:27:20;;;;;;;13.48;7.03;;;14.10;64.50;;;;;;5050459;28;20110;-85
2022/12/13 12:30:09;;;;;;;15.60;5.43;;;14.60;64.00;;;;;;5038317;28;20445;-86
2022/12/13 12:32:52;;;;;;;12.65;5.65;;;14.90;64.10;;;;;;5037642;28;20029;-89
2022/12/13 12:35:23;;;;;;;7.70;4.65;;;15.10;64.50;;;;;;5055743;28;20035;-89
2022/12/13 12:37:59;;;;;;;9.85;4.90;;;15.20;65.10;;;;;;5055474;28;20096;-90
2022/12/13 12:40:53;;;;;;;8.30;3.80;;;15.30;65.60;;;;;;5032163;28;20029;-89
2022/12/13 12:43:28;;;;;;;7.78;3.90;;;15.40;66.00;;;;;;5023485;28;20013;-89
2022/12/13 12:46:12;;;;;;;8.45;3.40;;;15.50;66.50;;;;;;5055349;28;20389;-89
2022/12/13 12:49:01;;;;;;;5.85;3.35;;;15.60;66.80;;;;;;5033199;28;20065;-89
2022/12/13 12:51:50;;;;;;;11.75;3.65;;;15.60;67.30;;;;;;5043602;28;20521;-89
2022/12/13 12:54:41;;;;;;;6.45;3.65;;;15.60;67.70;;;;;;5022822;28;20033;-87
2022/12/13 12:57:30;;;;;;;6.72;2.92;;;15.70;68.20;;;;;;5029702;28;20025;-87
2022/12/13 13:00:08;;;;;;;10.10;3.17;;;15.70;68.60;;;;;;5035791;28;20089;-87
2022/12/13 13:02:46;;;;;;;6.70;2.83;;;15.70;68.90;;;;;;5043473;28;20018;-88
2022/12/13 13:05:43;;;;;;;5.20;2.92;;;15.80;69.40;;;;;;5050936;28;20061;-87
2022/12/13 13:08:11;;;;;;;4.45;2.70;;;15.80;69.70;;;;;;5035932;28;20029;-87